Time;durP1;ratioP1;P1;durP2;ratioP2;P2;SDS_P1;SDS_P2;PMS_P1;PMS_P2;Temp;Humidity;BMP_temperature;BMP_pressure;BME280_temperature;BME280_humidity;BME280_pressure;Samples;Min_cycle;Max_cycle;Signal;HPM_P1;HPM_P2
2021/10/04 00:00:55;;;;;;;;;;;12.70;1.00;;;;;;5054157;28;19913;-83
2021/10/04 00:03:21;;;;;;;;;;;12.70;1.00;;;;;;5052118;28;19927;-83
2021/10/04 00:05:46;;;;;;;;;;;12.70;1.00;;;;;;5054497;28;19917;-83
2021/10/04 00:08:12;;;;;;;;;;;12.70;1.00;;;;;;5059726;28;19968;-83
2021/10/04 00:10:37;;;;;;;;;;;12.70;1.00;;;;;;5059820;28;19935;-83
2021/10/04 00:13:03;;;;;;;;;;;12.70;1.00;;;;;;5062420;28;19917;-83
2021/10/04 00:15:30;;;;;;;;;;;12.70;1.00;;;;;;5076921;28;19920;-84
2021/10/04 00:17:56;;;;;;;;;;;12.70;1.00;;;;;;5061971;28;19913;-83
2021/10/04 00:20:22;;;;;;;;;;;12.70;1.00;;;;;;5058955;28;20011;-83
2021/10/04 00:22:47;;;;;;;;;;;12.70;1.00;;;;;;5060779;28;19920;-85
2021/10/04 00:25:13;;;;;;;;;;;12.70;1.00;;;;;;5061923;28;19944;-83
2021/10/04 00:27:39;;;;;;;;;;;12.70;1.00;;;;;;5060454;28;19917;-84
2021/10/04 00:30:06;;;;;;;;;;;12.70;1.00;;;;;;5062668;28;19916;-83
2021/10/04 00:32:33;;;;;;;;;;;12.60;1.00;;;;;;5061268;28;19972;-84
2021/10/04 00:34:58;;;;;;;;;;;12.60;1.00;;;;;;5061292;28;19916;-84
2021/10/04 00:37:24;;;;;;;;;;;12.60;12.00;;;;;;5061363;28;19915;-83
2021/10/04 00:39:49;;;;;;;;;;;12.60;99.90;;;;;;5053243;28;19913;-83
2021/10/04 00:42:15;;;;;;;;;;;12.60;99.90;;;;;;5050040;28;19913;-83
2021/10/04 00:44:40;;;;;;;;;;;12.60;99.90;;;;;;5056583;28;19952;-84
2021/10/04 00:47:05;;;;;;;;;;;12.50;99.90;;;;;;5058331;28;19940;-84
2021/10/04 00:49:31;;;;;;;;;;;12.50;99.90;;;;;;5049898;28;20000;-83
2021/10/04 00:51:56;;;;;;;;;;;12.60;99.90;;;;;;5045207;28;19913;-83
2021/10/04 00:54:22;;;;;;;;;;;12.60;99.90;;;;;;5052807;28;20660;-83
2021/10/04 00:56:47;;;;;;;;;;;12.60;99.90;;;;;;5049437;28;19920;-84
2021/10/04 00:59:13;;;;;;;;;;;12.60;99.90;;;;;;5053841;28;19913;-83
2021/10/04 01:01:38;;;;;;;;;;;12.60;20.40;;;;;;5055431;28;19913;-84
2021/10/04 01:04:05;;;;;;;;;;;12.60;1.00;;;;;;5054884;28;20300;-84
2021/10/04 01:06:31;;;;;;;;;;;12.60;15.00;;;;;;5055950;28;20007;-83
2021/10/04 01:08:56;;;;;;;;;;;12.60;1.00;;;;;;5051764;28;20333;-84
2021/10/04 01:11:22;;;;;;;;;;;12.60;1.00;;;;;;5054093;28;20506;-84
2021/10/04 01:13:47;;;;;;;;;;;12.60;1.00;;;;;;5054405;28;19978;-84
2021/10/04 01:16:14;;;;;;;;;;;12.60;1.00;;;;;;5054070;28;19913;-84
2021/10/04 01:18:40;;;;;;;;;;;12.60;1.00;;;;;;5056415;28;19944;-84
2021/10/04 01:21:05;;;;;;;;;;;12.70;1.00;;;;;;5055752;28;19967;-84
2021/10/04 01:23:31;;;;;;;;;;;12.60;1.00;;;;;;5050924;28;20412;-83
2021/10/04 01:25:57;;;;;;;;;;;12.60;1.00;;;;;;5053546;28;19912;-83
2021/10/04 01:28:23;;;;;;;;;;;12.70;1.00;;;;;;5052832;28;20011;-84
2021/10/04 01:30:48;;;;;;;;;;;12.70;1.00;;;;;;5053242;28;20385;-83
2021/10/04 01:33:14;;;;;;;;;;;12.70;1.00;;;;;;5051451;28;20016;-83
2021/10/04 01:35:40;;;;;;;;;;;12.70;1.00;;;;;;5053928;28;19913;-83
2021/10/04 01:38:05;;;;;;;;;;;12.70;1.00;;;;;;5057512;28;19952;-83
2021/10/04 01:40:31;;;;;;;;;;;12.70;1.00;;;;;;5061190;28;19913;-84
2021/10/04 01:42:56;;;;;;;;;;;12.70;1.00;;;;;;5060789;28;19913;-84
2021/10/04 01:45:23;;;;;;;;;;;12.70;1.00;;;;;;5059381;28;19952;-84
2021/10/04 01:47:49;;;;;;;;;;;12.70;1.00;;;;;;5064331;28;19916;-84
2021/10/04 01:50:15;;;;;;;;;;;12.70;1.00;;;;;;5069109;28;19920;-83
2021/10/04 01:52:41;;;;;;;;;;;12.70;1.00;;;;;;5066676;28;19979;-84
2021/10/04 01:55:07;;;;;;;;;;;12.60;1.00;;;;;;5059904;28;19913;-83
2021/10/04 01:57:32;;;;;;;;;;;12.60;1.00;;;;;;5060163;28;19957;-83
2021/10/04 02:00:01;;;;;;;;;;;12.60;1.00;;;;;;5058106;28;19920;-83
2021/10/04 02:02:28;;;;;;;;;;;12.60;1.00;;;;;;5056187;28;20290;-83
2021/10/04 02:04:53;;;;;;;;;;;12.60;1.00;;;;;;5056697;28;19913;-84
2021/10/04 02:07:19;;;;;;;;;;;12.60;1.00;;;;;;5055446;28;20427;-83
2021/10/04 02:09:47;;;;;;;;;;;12.60;1.00;;;;;;5057839;28;19934;-83
2021/10/04 02:12:16;;;;;;;;;;;12.60;1.00;;;;;;5058568;28;19935;-83
2021/10/04 02:14:41;;;;;;;;;;;12.60;1.00;;;;;;5057169;28;19986;-83
2021/10/04 02:17:07;;;;;;;;;;;12.60;1.00;;;;;;5057773;28;19912;-83
2021/10/04 02:19:32;;;;;;;;;;;12.60;1.00;;;;;;5057028;28;19921;-83
2021/10/04 02:22:00;;;;;;;;;;;12.50;31.40;;;;;;5055129;28;19919;-83
2021/10/04 02:24:28;;;;;;;;;;;12.50;46.80;;;;;;5057636;28;19913;-83
2021/10/04 02:26:54;;;;;;;;;;;12.50;99.90;;;;;;5055515;28;19917;-83
2021/10/04 02:29:19;;;;;;;;;;;12.50;99.90;;;;;;5055061;28;19913;-83
2021/10/04 02:31:45;;;;;;;;;;;12.50;99.90;;;;;;5055351;28;20453;-83
2021/10/04 02:34:10;;;;;;;;;;;12.50;99.90;;;;;;5055181;28;19917;-84
2021/10/04 02:36:36;;;;;;;;;;;12.50;99.90;;;;;;5055049;28;19913;-83
2021/10/04 02:39:02;;;;;;;;;;;12.50;99.90;;;;;;5056491;28;19921;-83
2021/10/04 02:41:28;;;;;;;;;;;12.50;99.90;;;;;;5054026;28;20369;-83
2021/10/04 02:43:53;;;;;;;;;;;12.50;1.00;;;;;;5054676;28;20008;-84
2021/10/04 02:46:19;;;;;;;;;;;12.50;1.00;;;;;;5039359;28;19917;-83
2021/10/04 02:48:44;;;;;;;;;;;12.40;1.00;;;;;;5055842;28;19958;-83
2021/10/04 02:51:10;;;;;;;;;;;12.40;1.00;;;;;;5055663;28;19919;-82
2021/10/04 02:53:35;;;;;;;;;;;12.40;1.00;;;;;;5055625;28;19962;-83
2021/10/04 02:56:01;;;;;;;;;;;12.30;1.00;;;;;;5055702;28;19916;-83
2021/10/04 02:58:26;;;;;;;;;;;12.30;1.00;;;;;;5054179;28;19912;-83
2021/10/04 03:00:52;;;;;;;;;;;12.30;1.00;;;;;;5054811;28;20335;-83
2021/10/04 03:03:17;;;;;;;;;;;12.30;30.60;;;;;;5054060;28;20415;-83
2021/10/04 03:05:43;;;;;;;;;;;12.20;48.10;;;;;;5055009;28;19909;-84
2021/10/04 03:08:08;;;;;;;;;;;12.20;87.30;;;;;;5056208;28;19913;-83
2021/10/04 03:10:35;;;;;;;;;;;12.30;99.90;;;;;;5054959;28;19909;-83
2021/10/04 03:13:01;;;;;;;;;;;12.20;99.90;;;;;;5059866;28;20336;-83
2021/10/04 03:15:27;;;;;;;;;;;12.20;99.90;;;;;;5061385;28;19912;-83
2021/10/04 03:17:53;;;;;;;;;;;12.20;99.90;;;;;;5060240;28;20019;-84
2021/10/04 03:20:18;;;;;;;;;;;12.20;99.90;;;;;;5060272;28;19909;-83
2021/10/04 03:22:43;;;;;;;;;;;12.20;99.90;;;;;;5060016;28;19959;-83
2021/10/04 03:25:09;;;;;;;;;;;12.10;99.90;;;;;;5058333;28;20291;-83
2021/10/04 03:27:35;;;;;;;;;;;12.20;99.90;;;;;;5057762;28;19915;-83
2021/10/04 03:30:01;;;;;;;;;;;12.20;99.90;;;;;;5057698;28;19979;-83
2021/10/04 03:32:26;;;;;;;;;;;12.10;99.90;;;;;;5058466;28;20011;-83
2021/10/04 03:34:51;;;;;;;;;;;12.10;99.90;;;;;;5056413;28;19922;-83
2021/10/04 03:37:17;;;;;;;;;;;12.10;99.90;;;;;;5057445;28;20416;-83
2021/10/04 03:39:43;;;;;;;;;;;12.10;99.90;;;;;;5054239;28;19919;-83
2021/10/04 03:42:08;;;;;;;;;;;12.10;99.90;;;;;;5056709;28;19920;-83
2021/10/04 03:44:34;;;;;;;;;;;12.10;99.90;;;;;;5050258;28;19916;-83
2021/10/04 03:46:59;;;;;;;;;;;12.10;99.90;;;;;;5049881;28;19916;-83
2021/10/04 03:49:25;;;;;;;;;;;12.10;99.90;;;;;;5054749;28;19958;-83
2021/10/04 03:51:51;;;;;;;;;;;12.00;99.90;;;;;;5054800;28;19967;-83
2021/10/04 03:54:17;;;;;;;;;;;12.10;99.90;;;;;;5053790;28;19925;-83
2021/10/04 03:56:43;;;;;;;;;;;12.00;99.90;;;;;;5056374;28;19954;-83
2021/10/04 03:59:08;;;;;;;;;;;12.00;99.90;;;;;;5053260;28;20288;-83
2021/10/04 04:01:34;;;;;;;;;;;12.10;99.90;;;;;;5054851;28;19913;-82
2021/10/04 04:03:59;;;;;;;;;;;12.00;99.90;;;;;;5055203;28;20469;-83
2021/10/04 04:06:25;;;;;;;;;;;12.10;99.90;;;;;;5055084;28;20445;-83
2021/10/04 04:08:50;;;;;;;;;;;12.10;99.90;;;;;;5053877;28;19920;-82
2021/10/04 04:11:15;;;;;;;;;;;12.00;99.90;;;;;;5054423;28;19913;-83
2021/10/04 04:13:41;;;;;;;;;;;12.00;99.90;;;;;;5054257;28;19936;-83
2021/10/04 04:16:07;;;;;;;;;;;12.00;99.90;;;;;;5053494;28;19921;-83
2021/10/04 04:18:32;;;;;;;;;;;12.00;99.90;;;;;;5053383;28;19921;-83
2021/10/04 04:20:58;;;;;;;;;;;12.00;99.90;;;;;;5053895;28;19963;-83
2021/10/04 04:23:23;;;;;;;;;;;12.00;99.90;;;;;;5055092;28;19916;-83
2021/10/04 04:28:27;;;;;;;;;;;12.00;99.90;;;;;;5075195;28;19929;-76
2021/10/04 04:30:52;;;;;;;;;;;12.00;99.90;;;;;;5085868;28;19991;-77
2021/10/04 04:33:18;;;;;;;;;;;12.00;99.90;;;;;;5087129;28;20003;-77
2021/10/04 04:35:43;;;;;;;;;;;12.00;99.90;;;;;;5089058;28;19912;-77
2021/10/04 04:38:09;;;;;;;;;;;11.90;99.90;;;;;;5054180;28;19932;-77
2021/10/04 04:40:35;;;;;;;;;;;12.00;99.90;;;;;;5068211;28;19961;-75
2021/10/04 04:43:00;;;;;;;;;;;11.90;99.90;;;;;;5092141;28;19920;-76
2021/10/04 04:45:25;;;;;;;;;;;11.90;99.90;;;;;;5086984;28;19919;-79
2021/10/04 04:47:51;;;;;;;;;;;11.90;99.90;;;;;;5092529;28;19916;-76
2021/10/04 04:50:18;;;;;;;;;;;11.90;99.90;;;;;;5072956;28;19912;-77
2021/10/04 04:52:43;;;;;;;;;;;12.00;99.90;;;;;;5073817;28;20395;-76
2021/10/04 04:55:09;;;;;;;;;;;12.00;99.90;;;;;;5090965;28;19916;-77
2021/10/04 04:57:34;;;;;;;;;;;12.00;99.90;;;;;;5073246;28;19916;-77
2021/10/04 05:00:00;;;;;;;;;;;12.00;99.90;;;;;;5072540;28;19913;-77
2021/10/04 05:02:26;;;;;;;;;;;12.00;99.90;;;;;;5091919;28;20010;-77
2021/10/04 05:04:51;;;;;;;;;;;12.00;99.90;;;;;;5091316;28;20003;-77
2021/10/04 05:07:17;;;;;;;;;;;12.00;99.90;;;;;;5091780;28;19908;-77
2021/10/04 05:09:42;;;;;;;;;;;12.00;99.90;;;;;;5090801;28;20314;-77
2021/10/04 05:12:08;;;;;;;;;;;12.00;99.90;;;;;;5072173;28;19923;-78
2021/10/04 05:14:33;;;;;;;;;;;12.00;99.90;;;;;;5074325;28;19969;-76
2021/10/04 05:16:59;;;;;;;;;;;12.00;91.30;;;;;;5073615;28;20311;-77
2021/10/04 05:19:24;;;;;;;;;;;12.00;65.10;;;;;;5095988;28;19912;-78
2021/10/04 05:21:50;;;;;;;;;;;12.00;95.70;;;;;;5097704;28;20354;-78
2021/10/04 05:24:15;;;;;;;;;;;12.00;98.10;;;;;;5097700;28;20011;-78
2021/10/04 05:26:41;;;;;;;;;;;12.00;84.90;;;;;;5078490;28;20541;-78
2021/10/04 05:29:07;;;;;;;;;;;12.00;83.10;;;;;;5097150;28;19957;-77
2021/10/04 05:31:33;;;;;;;;;;;12.00;81.20;;;;;;5096587;28;19948;-78
2021/10/04 05:33:58;;;;;;;;;;;12.00;99.90;;;;;;5079930;28;19916;-78
2021/10/04 05:36:23;;;;;;;;;;;11.90;99.90;;;;;;5096896;28;19920;-77
2021/10/04 05:38:49;;;;;;;;;;;11.90;99.90;;;;;;5079643;28;19912;-78
2021/10/04 05:41:14;;;;;;;;;;;11.90;99.90;;;;;;5099863;28;19912;-78
2021/10/04 05:43:40;;;;;;;;;;;11.90;99.90;;;;;;5096669;28;20057;-78
2021/10/04 05:46:06;;;;;;;;;;;11.90;99.90;;;;;;5099453;28;20386;-78
2021/10/04 05:48:32;;;;;;;;;;;11.90;99.90;;;;;;5096014;28;19912;-78
2021/10/04 05:50:58;;;;;;;;;;;11.90;99.90;;;;;;5095632;28;19912;-78
2021/10/04 05:53:23;;;;;;;;;;;12.00;99.90;;;;;;5098929;28;19924;-79
2021/10/04 05:55:49;;;;;;;;;;;11.90;99.90;;;;;;5098629;28;19923;-77
2021/10/04 05:58:15;;;;;;;;;;;12.00;99.90;;;;;;5100038;28;19913;-80
2021/10/04 06:00:41;;;;;;;;;;;12.00;99.90;;;;;;5098038;28;19912;-80
2021/10/04 06:03:06;;;;;;;;;;;12.00;99.90;;;;;;5099979;28;20342;-79
2021/10/04 06:05:32;;;;;;;;;;;12.00;84.60;;;;;;5097818;28;19965;-79
2021/10/04 06:07:57;;;;;;;;;;;12.10;51.70;;;;;;5097847;28;19916;-79
2021/10/04 06:10:23;;;;;;;;;;;12.10;22.10;;;;;;5096016;28;19920;-79
2021/10/04 06:12:50;;;;;;;;;;;12.10;1.10;;;;;;5080293;28;19908;-79
2021/10/04 06:15:15;;;;;;;;;;;12.10;7.10;;;;;;5079335;28;20425;-79
2021/10/04 06:17:41;;;;;;;;;;;12.10;1.00;;;;;;5096861;28;19920;-78
2021/10/04 06:20:08;;;;;;;;;;;12.10;21.10;;;;;;5079602;28;19912;-79
2021/10/04 06:22:33;;;;;;;;;;;12.10;36.60;;;;;;5097333;28;19912;-79
2021/10/04 06:24:59;;;;;;;;;;;12.10;24.60;;;;;;5097381;28;19934;-79
2021/10/04 06:27:24;;;;;;;;;;;12.20;25.60;;;;;;5077050;28;20432;-79
2021/10/04 06:29:50;;;;;;;;;;;12.20;9.50;;;;;;5094580;28;19948;-79
2021/10/04 06:32:15;;;;;;;;;;;12.20;1.00;;;;;;5097179;28;19908;-79
2021/10/04 06:34:41;;;;;;;;;;;12.30;1.00;;;;;;5079451;28;19927;-79
2021/10/04 06:37:06;;;;;;;;;;;12.30;1.00;;;;;;5097634;28;20288;-79
2021/10/04 06:39:32;;;;;;;;;;;12.40;1.00;;;;;;5096137;28;19923;-79
2021/10/04 06:41:57;;;;;;;;;;;12.50;1.00;;;;;;5078017;28;19999;-79
2021/10/04 06:44:23;;;;;;;;;;;12.50;1.00;;;;;;5096768;28;19916;-79
2021/10/04 06:46:48;;;;;;;;;;;12.60;1.00;;;;;;5095557;28;19934;-79
2021/10/04 06:49:14;;;;;;;;;;;12.60;1.00;;;;;;5097440;28;19972;-79
2021/10/04 06:51:39;;;;;;;;;;;12.60;1.00;;;;;;5096926;28;20356;-79
2021/10/04 06:54:05;;;;;;;;;;;12.60;1.00;;;;;;5095947;28;19920;-79
2021/10/04 06:56:31;;;;;;;;;;;12.70;1.00;;;;;;5095660;28;19918;-79
2021/10/04 06:58:57;;;;;;;;;;;12.70;1.00;;;;;;5096993;28;19908;-79
2021/10/04 07:01:22;;;;;;;;;;;12.80;1.00;;;;;;5095330;28;19920;-79
2021/10/04 07:03:48;;;;;;;;;;;12.90;1.00;;;;;;5096983;28;19912;-79
2021/10/04 07:06:13;;;;;;;;;;;13.00;1.00;;;;;;5095603;28;20489;-79
2021/10/04 07:08:39;;;;;;;;;;;13.10;99.90;;;;;;5095760;28;20012;-79
2021/10/04 07:11:04;;;;;;;;;;;13.20;99.90;;;;;;5095862;28;19919;-79
2021/10/04 07:13:30;;;;;;;;;;;13.20;99.90;;;;;;5096435;28;19963;-80
2021/10/04 07:15:55;;;;;;;;;;;13.30;99.90;;;;;;5095356;28;19911;-78
2021/10/04 07:18:21;;;;;;;;;;;13.30;99.90;;;;;;5095918;28;20336;-78
2021/10/04 07:20:46;;;;;;;;;;;13.30;99.90;;;;;;5093831;28;19965;-80
2021/10/04 07:23:12;;;;;;;;;;;13.30;71.60;;;;;;5078048;28;19936;-80
2021/10/04 07:25:37;;;;;;;;;;;13.40;51.80;;;;;;5077064;28;19920;-80
2021/10/04 07:28:03;;;;;;;;;;;13.30;36.60;;;;;;5096953;28;19916;-80
2021/10/04 07:30:29;;;;;;;;;;;13.30;25.50;;;;;;5077993;28;19912;-80
2021/10/04 07:32:55;;;;;;;;;;;13.30;10.90;;;;;;5096705;28;19909;-77
2021/10/04 07:35:21;;;;;;;;;;;13.40;1.00;;;;;;5094664;28;20430;-78
2021/10/04 07:37:49;;;;;;;;;;;13.40;1.00;;;;;;5096300;28;20429;-78
2021/10/04 07:40:15;;;;;;;;;;;13.40;1.00;;;;;;5076653;28;20266;-78
2021/10/04 07:42:42;;;;;;;;;;;13.50;1.00;;;;;;5092905;28;19915;-79
2021/10/04 07:45:08;;;;;;;;;;;13.60;1.00;;;;;;5094598;28;19934;-79
2021/10/04 07:47:33;;;;;;;;;;;13.60;1.00;;;;;;5094081;28;19912;-79
2021/10/04 07:49:58;;;;;;;;;;;13.60;99.90;;;;;;5093772;28;19995;-78
2021/10/04 07:52:24;;;;;;;;;;;13.70;99.90;;;;;;5095764;28;19920;-79
2021/10/04 07:54:49;;;;;;;;;;;13.70;99.90;;;;;;5093897;28;19967;-78
2021/10/04 07:57:15;;;;;;;;;;;13.70;99.90;;;;;;5095156;28;19976;-78
2021/10/04 07:59:41;;;;;;;;;;;13.70;99.90;;;;;;5094435;28;19916;-78
2021/10/04 08:02:10;;;;;;;;;;;13.80;99.90;;;;;;5097550;28;20401;-78
2021/10/04 08:04:36;;;;;;;;;;;13.80;99.90;;;;;;5078530;28;20420;-78
2021/10/04 08:07:02;;;;;;;;;;;13.90;66.70;;;;;;5079411;28;20407;-79
2021/10/04 08:09:28;;;;;;;;;;;13.90;1.00;;;;;;5096740;28;19934;-79
2021/10/04 08:11:54;;;;;;;;;;;14.10;1.00;;;;;;5081292;28;19912;-78
2021/10/04 08:14:20;;;;;;;;;;;14.20;1.00;;;;;;5098084;28;19923;-78
2021/10/04 08:16:46;;;;;;;;;;;14.50;99.90;;;;;;5080545;28;19962;-78
2021/10/04 08:19:11;;;;;;;;;;;14.90;1.00;;;;;;5096582;28;19997;-79
2021/10/04 08:21:37;;;;;;;;;;;15.50;67.80;;;;;;5097870;28;19911;-79
2021/10/04 08:24:02;;;;;;;;;;;15.80;99.90;;;;;;5098367;28;20333;-78
2021/10/04 08:26:28;;;;;;;;;;;15.90;99.90;;;;;;5097152;28;20279;-79
2021/10/04 08:28:54;;;;;;;;;;;15.80;99.90;;;;;;5080108;28;19912;-78
2021/10/04 08:31:20;;;;;;;;;;;15.70;99.90;;;;;;5099105;28;19912;-78
2021/10/04 08:33:46;;;;;;;;;;;15.70;20.70;;;;;;5083780;28;19916;-78
2021/10/04 08:36:11;;;;;;;;;;;15.80;1.00;;;;;;5084557;28;19930;-79
2021/10/04 08:38:37;;;;;;;;;;;16.00;1.00;;;;;;5100340;28;19919;-79
2021/10/04 08:41:02;;;;;;;;;;;16.30;1.00;;;;;;5082973;28;19908;-79
2021/10/04 08:43:28;;;;;;;;;;;16.60;99.90;;;;;;5089114;28;19934;-77
2021/10/04 08:45:57;;;;;;;;;;;16.90;99.90;;;;;;5065503;28;19948;-77
2021/10/04 08:48:23;;;;;;;;;;;17.10;91.20;;;;;;5086444;28;19912;-77
2021/10/04 08:50:49;;;;;;;;;;;17.20;1.00;;;;;;5088463;28;19916;-79
2021/10/04 08:53:16;;;;;;;;;;;17.50;99.90;;;;;;5089817;28;19927;-78
2021/10/04 08:55:42;;;;;;;;;;;17.70;99.90;;;;;;5094780;28;20428;-77
2021/10/04 08:58:08;;;;;;;;;;;17.90;99.90;;;;;;5078474;28;19946;-78
2021/10/04 09:00:34;;;;;;;;;;;18.10;99.90;;;;;;5105446;28;19947;-78
2021/10/04 09:03:00;;;;;;;;;;;18.50;99.90;;;;;;5107006;28;19934;-78
2021/10/04 09:05:27;;;;;;;;;;;18.70;38.70;;;;;;5103092;28;19912;-78
2021/10/04 09:08:02;;;;;;;;;;;19.20;1.00;;;;;;5104727;28;19931;-77
2021/10/04 09:10:32;;;;;;;;;;;19.70;1.00;;;;;;5103406;28;19931;-78
2021/10/04 09:12:58;;;;;;;;;;;20.00;1.00;;;;;;5104589;28;20299;-78
2021/10/04 09:15:27;;;;;;;;;;;20.20;1.00;;;;;;5109486;28;19912;-78
2021/10/04 09:17:53;;;;;;;;;;;20.50;1.00;;;;;;5105591;28;19916;-78
2021/10/04 09:20:19;;;;;;;;;;;21.00;1.00;;;;;;5104228;28;19912;-78
2021/10/04 09:22:45;;;;;;;;;;;21.20;1.00;;;;;;5088544;28;20013;-78
2021/10/04 09:25:11;;;;;;;;;;;21.80;1.00;;;;;;5106597;28;19916;-78
2021/10/04 09:27:38;;;;;;;;;;;23.00;99.90;;;;;;5079714;28;19916;-79
2021/10/04 09:30:10;;;;;;;;;;;23.90;99.90;;;;;;5087583;28;19912;-79
2021/10/04 09:32:39;;;;;;;;;;;25.00;99.90;;;;;;5086291;28;19950;-78
2021/10/04 09:35:11;;;;;;;;;;;25.90;99.90;;;;;;5107338;28;19916;-78
2021/10/04 09:37:36;;;;;;;;;;;26.10;99.90;;;;;;5104776;28;19950;-78
2021/10/04 09:40:03;;;;;;;;;;;25.90;99.90;;;;;;5105690;28;19912;-78
2021/10/04 09:42:36;;;;;;;;;;;25.70;99.90;;;;;;5086254;28;19909;-79
2021/10/04 09:45:03;;;;;;;;;;;26.10;99.90;;;;;;5102464;28;19923;-79
2021/10/04 09:47:32;;;;;;;;;;;26.60;99.90;;;;;;5103672;28;19908;-79
2021/10/04 09:50:00;;;;;;;;;;;28.30;99.90;;;;;;5097896;28;19912;-79
2021/10/04 09:52:45;;;;;;;;;;;29.20;99.90;;;;;;5102721;28;20334;-79
2021/10/04 09:55:12;;;;;;;;;;;30.70;99.90;;;;;;5086539;28;19920;-79
2021/10/04 09:57:38;;;;;;;;;;;32.30;99.90;;;;;;5105117;28;20189;-78
2021/10/04 10:00:03;;;;;;;;;;;33.30;99.90;;;;;;5103965;28;19919;-80
2021/10/04 10:02:30;;;;;;;;;;;32.90;99.90;;;;;;5105776;28;19959;-79
2021/10/04 10:04:55;;;;;;;;;;;32.30;99.90;;;;;;5099495;28;20437;-79
2021/10/04 10:07:21;;;;;;;;;;;33.30;99.90;;;;;;5086395;28;19947;-79
2021/10/04 10:09:46;;;;;;;;;;;34.70;99.90;;;;;;5087633;28;19912;-79
2021/10/04 10:12:12;;;;;;;;;;;33.60;99.90;;;;;;5084258;28;19915;-79
2021/10/04 10:14:39;;;;;;;;;;;32.80;99.90;;;;;;5085632;28;19916;-79
2021/10/04 10:17:06;;;;;;;;;;;31.50;99.90;;;;;;5105221;28;19908;-79
2021/10/04 10:19:36;;;;;;;;;;;30.70;99.90;;;;;;5087060;28;19916;-79
2021/10/04 10:22:14;;;;;;;;;;;29.50;99.90;;;;;;5105706;28;19912;-79
2021/10/04 10:24:40;;;;;;;;;;;28.10;99.90;;;;;;5087270;28;19916;-79
2021/10/04 10:27:06;;;;;;;;;;;26.50;99.90;;;;;;5086991;28;19938;-79
2021/10/04 10:29:32;;;;;;;;;;;25.30;99.90;;;;;;5102512;28;19916;-78
2021/10/04 10:31:57;;;;;;;;;;;24.70;99.90;;;;;;5097365;28;19912;-78
2021/10/04 10:34:23;;;;;;;;;;;24.10;99.90;;;;;;5106606;28;19923;-78
2021/10/04 10:36:57;;;;;;;;;;;24.70;99.90;;;;;;5103979;28;19947;-79
2021/10/04 10:39:42;;;;;;;;;;;26.10;99.90;;;;;;5088174;28;20300;-78
2021/10/04 10:42:13;;;;;;;;;;;26.20;99.90;;;;;;5104698;28;19913;-79
2021/10/04 10:44:57;;;;;;;;;;;27.50;99.90;;;;;;5095222;28;19912;-78
2021/10/04 10:47:37;;;;;;;;;;;27.00;99.90;;;;;;5103253;28;19912;-78
2021/10/04 10:50:21;;;;;;;;;;;26.20;99.90;;;;;;5104372;28;20338;-78
2021/10/04 10:52:56;;;;;;;;;;;25.20;99.90;;;;;;5085837;28;19912;-78
2021/10/04 10:55:21;;;;;;;;;;;24.90;99.90;;;;;;5103078;28;19920;-78
2021/10/04 10:57:59;;;;;;;;;;;25.40;99.90;;;;;;5102806;28;19918;-79
2021/10/04 11:00:37;;;;;;;;;;;26.60;99.90;;;;;;5099835;28;19944;-79
2021/10/04 11:03:02;;;;;;;;;;;27.50;99.90;;;;;;5099847;28;19919;-79
2021/10/04 11:05:31;;;;;;;;;;;29.20;99.90;;;;;;5099151;28;19912;-79
2021/10/04 11:07:56;;;;;;;;;;;30.40;99.90;;;;;;5099959;28;19939;-79
2021/10/04 11:10:22;;;;;;;;;;;31.50;99.90;;;;;;5083563;28;19912;-79
2021/10/04 11:13:06;;;;;;;;;;;32.10;99.90;;;;;;5100940;28;19913;-79
2021/10/04 11:15:31;;;;;;;;;;;32.50;99.90;;;;;;5102654;28;20060;-79
2021/10/04 11:17:57;;;;;;;;;;;33.00;99.90;;;;;;5103031;28;19916;-79
2021/10/04 11:20:22;;;;;;;;;;;33.40;99.90;;;;;;5102711;28;19969;-79
2021/10/04 11:22:48;;;;;;;;;;;33.60;99.90;;;;;;5101395;28;19912;-79
2021/10/04 11:25:13;;;;;;;;;;;33.50;99.90;;;;;;5100576;28;19944;-78
2021/10/04 11:27:48;;;;;;;;;;;33.70;99.90;;;;;;5102987;28;19916;-79
2021/10/04 11:30:14;;;;;;;;;;;33.70;99.90;;;;;;5094247;28;19919;-79
2021/10/04 11:32:40;;;;;;;;;;;33.80;99.90;;;;;;5101427;28;19947;-79
2021/10/04 11:35:13;;;;;;;;;;;33.70;99.90;;;;;;5077649;28;19916;-79
2021/10/04 11:37:38;;;;;;;;;;;33.50;99.90;;;;;;5084021;28;19922;-79
2021/10/04 11:40:05;;;;;;;;;;;33.30;99.90;;;;;;5083247;28;19983;-79
2021/10/04 11:42:32;;;;;;;;;;;33.50;99.90;;;;;;5085924;28;19973;-79
2021/10/04 11:45:00;;;;;;;;;;;33.30;99.90;;;;;;5102073;28;20375;-78
2021/10/04 11:47:26;;;;;;;;;;;33.20;99.90;;;;;;5100955;28;19969;-78
2021/10/04 11:49:53;;;;;;;;;;;33.20;99.90;;;;;;5083181;28;19912;-79
2021/10/04 11:52:19;;;;;;;;;;;33.00;99.90;;;;;;5083939;28;20006;-78
2021/10/04 11:54:45;;;;;;;;;;;33.00;99.90;;;;;;5101139;28;19923;-79
2021/10/04 11:57:15;;;;;;;;;;;32.80;99.90;;;;;;5097148;28;19951;-79
2021/10/04 11:59:51;;;;;;;;;;;32.70;99.90;;;;;;5095334;28;19916;-79
2021/10/04 12:02:27;;;;;;;;;;;32.50;99.90;;;;;;5069100;28;19920;-79
2021/10/04 12:05:08;;;;;;;;;;;32.40;99.90;;;;;;5072822;28;19916;-79
2021/10/04 12:07:34;;;;;;;;;;;32.10;99.90;;;;;;5097871;28;19912;-79
2021/10/04 12:09:59;;;;;;;;;;;32.00;99.90;;;;;;5084597;28;19915;-79
2021/10/04 12:12:32;;;;;;;;;;;32.00;99.90;;;;;;5097695;28;19908;-79
2021/10/04 12:14:58;;;;;;;;;;;32.20;99.90;;;;;;5077761;28;19916;-79
2021/10/04 12:17:23;;;;;;;;;;;31.80;99.90;;;;;;5096651;28;19912;-79
2021/10/04 12:19:49;;;;;;;;;;;31.40;99.90;;;;;;5096045;28;19938;-78
2021/10/04 12:22:27;;;;;;;;;;;31.30;99.90;;;;;;5093078;28;19920;-79
2021/10/04 12:24:53;;;;;;;;;;;31.40;99.90;;;;;;5089399;28;19927;-78
2021/10/04 12:27:19;;;;;;;;;;;31.50;99.90;;;;;;5091326;28;19916;-79
2021/10/04 12:29:44;;;;;;;;;;;31.40;99.90;;;;;;5094296;28;19912;-79
2021/10/04 12:32:22;;;;;;;;;;;31.50;99.90;;;;;;5077896;28;19938;-79
2021/10/04 12:35:07;;;;;;;;;;;31.50;99.90;;;;;;5095031;28;20340;-79
2021/10/04 12:37:45;;;;;;;;;;;31.70;99.90;;;;;;5082154;28;19988;-78
2021/10/04 12:40:30;;;;;;;;;;;31.70;99.90;;;;;;5091430;28;19912;-79
2021/10/04 12:42:58;;;;;;;;;;;31.10;99.90;;;;;;5080172;28;19912;-79
2021/10/04 12:45:23;;;;;;;;;;;30.80;99.90;;;;;;5073933;28;19920;-78
2021/10/04 12:48:00;;;;;;;;;;;30.70;99.90;;;;;;5095784;28;19914;-78
2021/10/04 12:50:38;;;;;;;;;;;30.70;99.90;;;;;;5078088;28;20395;-78
2021/10/04 12:53:14;;;;;;;;;;;30.60;99.90;;;;;;5076388;28;19912;-78
2021/10/04 12:55:47;;;;;;;;;;;30.40;99.90;;;;;;5065278;28;20016;-78
2021/10/04 12:58:13;;;;;;;;;;;30.40;99.90;;;;;;5072701;28;20291;-78
2021/10/04 13:00:38;;;;;;;;;;;30.50;99.90;;;;;;5088146;28;19922;-78
2021/10/04 13:03:04;;;;;;;;;;;30.40;99.90;;;;;;5092408;28;19951;-78
2021/10/04 13:05:29;;;;;;;;;;;30.20;99.90;;;;;;5075694;28;19912;-78
2021/10/04 13:07:55;;;;;;;;;;;29.90;99.90;;;;;;5091753;28;19912;-78
2021/10/04 13:10:20;;;;;;;;;;;29.90;99.90;;;;;;5094719;28;19999;-77
2021/10/04 13:12:47;;;;;;;;;;;29.70;99.90;;;;;;5094466;28;19912;-77
2021/10/04 13:15:12;;;;;;;;;;;29.50;99.90;;;;;;5091629;28;19920;-77
2021/10/04 13:17:38;;;;;;;;;;;29.50;99.90;;;;;;5076576;28;19931;-78
2021/10/04 13:20:04;;;;;;;;;;;29.70;99.90;;;;;;5093371;28;20008;-76
2021/10/04 13:22:29;;;;;;;;;;;29.70;99.90;;;;;;5070898;28;19962;-78
2021/10/04 13:24:55;;;;;;;;;;;29.60;99.90;;;;;;5080780;28;19924;-78
2021/10/04 13:27:21;;;;;;;;;;;29.40;99.90;;;;;;5091137;28;20015;-78
2021/10/04 13:29:47;;;;;;;;;;;29.30;99.90;;;;;;5087161;28;19920;-78
2021/10/04 13:32:13;;;;;;;;;;;29.40;99.90;;;;;;5092508;28;19912;-78
2021/10/04 13:34:38;;;;;;;;;;;29.40;99.90;;;;;;5094545;28;20314;-78
2021/10/04 13:37:04;;;;;;;;;;;29.40;99.90;;;;;;5075050;28;19912;-78
2021/10/04 13:39:29;;;;;;;;;;;29.00;99.90;;;;;;5092771;28;20410;-78
2021/10/04 13:41:55;;;;;;;;;;;28.90;99.90;;;;;;5093873;28;19938;-77
2021/10/04 13:44:20;;;;;;;;;;;28.90;99.90;;;;;;5087813;28;19916;-77
2021/10/04 13:46:46;;;;;;;;;;;28.80;99.90;;;;;;5090632;28;19934;-78
2021/10/04 13:49:11;;;;;;;;;;;28.50;99.90;;;;;;5090547;28;19980;-77
2021/10/04 13:51:37;;;;;;;;;;;28.30;99.90;;;;;;5090664;28;19916;-78
2021/10/04 13:54:02;;;;;;;;;;;28.20;99.90;;;;;;5097661;28;19923;-78
2021/10/04 13:56:28;;;;;;;;;;;27.90;99.90;;;;;;5093161;28;19969;-77
2021/10/04 13:58:53;;;;;;;;;;;27.80;99.90;;;;;;5093148;28;19920;-77
2021/10/04 14:01:20;;;;;;;;;;;27.70;99.90;;;;;;5073828;28;19965;-78
2021/10/04 14:03:45;;;;;;;;;;;27.60;99.90;;;;;;5096059;28;19973;-78
2021/10/04 14:06:11;;;;;;;;;;;27.60;99.90;;;;;;5097434;28;19912;-78
2021/10/04 14:08:36;;;;;;;;;;;27.70;99.90;;;;;;5085520;28;19916;-78
2021/10/04 14:11:02;;;;;;;;;;;27.70;99.90;;;;;;5089816;28;19916;-78
2021/10/04 14:13:28;;;;;;;;;;;27.60;99.90;;;;;;5095781;28;19926;-77
2021/10/04 14:15:54;;;;;;;;;;;27.10;99.90;;;;;;5093448;28;20522;-77
2021/10/04 14:18:19;;;;;;;;;;;26.80;99.90;;;;;;5095865;28;20424;-77
2021/10/04 14:20:45;;;;;;;;;;;26.30;99.90;;;;;;5095239;28;19908;-78